Time;durP1;ratioP1;P1;durP2;ratioP2;P2;SDS_P1;SDS_P2;PMS_P1;PMS_P2;Temp;Humidity;BMP_temperature;BMP_pressure;BME280_temperature;BME280_humidity;BME280_pressure;Samples;Min_cycle;Max_cycle;Signal;HPM_P1;HPM_P2
2022/01/14 00:02:18;;;;;;;584.87;551.73;;;5.30;99.90;;;;;;4397736;32;20170;-63
2022/01/14 00:04:46;;;;;;;572.87;540.70;;;5.30;99.90;;;;;;4401277;32;20490;-64
2022/01/14 00:07:13;;;;;;;574.20;542.50;;;5.20;99.90;;;;;;4399149;32;20152;-64
2022/01/14 00:09:42;;;;;;;577.80;545.40;;;5.20;99.90;;;;;;4399476;32;20151;-64
2022/01/14 00:12:15;;;;;;;586.67;553.37;;;5.10;99.90;;;;;;4400473;32;20177;-65
2022/01/14 00:14:45;;;;;;;570.30;537.33;;;5.10;99.90;;;;;;4393640;32;20188;-64
2022/01/14 00:17:14;;;;;;;586.70;552.37;;;5.10;99.90;;;;;;4400910;32;20163;-64
2022/01/14 00:19:46;;;;;;;568.50;536.67;;;5.20;99.90;;;;;;4395455;32;20148;-64
2022/01/14 00:22:15;;;;;;;557.43;526.50;;;5.20;99.90;;;;;;4402119;32;20152;-64
2022/01/14 00:33:04;;;;;;;550.00;519.40;;;5.00;99.90;;;;;;4398397;32;20170;-63
2022/01/14 00:35:35;;;;;;;557.07;524.90;;;4.90;99.90;;;;;;4398828;32;20452;-65
2022/01/14 00:38:05;;;;;;;567.57;534.87;;;5.00;99.90;;;;;;4393815;32;20152;-63
2022/01/14 00:40:35;;;;;;;562.57;529.50;;;4.90;99.90;;;;;;4395095;32;20152;-65
2022/01/14 00:43:02;;;;;;;582.13;548.10;;;4.90;99.90;;;;;;4409280;32;20181;-63
2022/01/14 00:45:29;;;;;;;570.63;537.07;;;4.90;99.90;;;;;;4399886;32;20171;-63
2022/01/14 00:48:00;;;;;;;584.00;550.40;;;4.90;99.90;;;;;;4403830;32;20168;-63
2022/01/14 00:50:27;;;;;;;584.93;551.73;;;4.90;99.90;;;;;;4405820;32;20210;-63
2022/01/14 00:52:56;;;;;;;566.87;534.40;;;5.00;99.90;;;;;;4406071;32;20152;-63
2022/01/14 00:55:28;;;;;;;585.10;551.63;;;4.90;99.90;;;;;;4399494;32;20172;-66
2022/01/14 01:00:39;;;;;;;562.87;531.33;;;5.00;99.90;;;;;;4405450;32;20610;-67
2022/01/14 01:03:06;;;;;;;577.67;543.70;;;5.10;99.90;;;;;;4399282;32;20166;-63
2022/01/14 01:05:33;;;;;;;569.53;536.83;;;5.10;99.90;;;;;;4398592;32;20577;-64
2022/01/14 01:08:09;;;;;;;579.33;546.57;;;5.00;99.90;;;;;;4396045;32;20152;-63
2022/01/14 01:10:46;;;;;;;593.67;560.57;;;5.10;99.90;;;;;;4394010;32;20201;-64
2022/01/14 01:13:19;;;;;;;557.80;525.87;;;5.10;99.90;;;;;;4405278;32;20143;-64
2022/01/14 01:15:47;;;;;;;567.20;534.67;;;5.10;99.90;;;;;;4398121;32;20561;-63
2022/01/14 01:18:14;;;;;;;579.60;545.73;;;5.10;99.90;;;;;;4393573;32;20540;-63
2022/01/14 01:20:44;;;;;;;568.67;536.03;;;5.10;99.90;;;;;;4403637;32;20153;-64
2022/01/14 01:23:15;;;;;;;585.03;551.23;;;5.10;99.90;;;;;;4398585;32;20152;-65
2022/01/14 01:25:46;;;;;;;597.37;563.73;;;5.20;99.90;;;;;;4403011;32;20156;-64
2022/01/14 01:28:13;;;;;;;587.03;553.63;;;5.20;99.90;;;;;;4408419;32;20156;-65
2022/01/14 01:31:05;;;;;;;587.80;553.40;;;5.20;99.90;;;;;;4395326;32;20148;-64
2022/01/14 01:33:33;;;;;;;550.70;519.80;;;5.20;99.90;;;;;;4398431;32;20567;-62
2022/01/14 01:36:02;;;;;;;560.33;529.00;;;5.30;99.90;;;;;;4403865;32;20174;-64
2022/01/14 01:38:30;;;;;;;581.63;548.10;;;5.20;99.90;;;;;;4394301;32;20669;-65
2022/01/14 01:40:59;;;;;;;572.40;540.97;;;5.20;99.90;;;;;;4401852;32;20188;-64
2022/01/14 01:43:26;;;;;;;538.20;508.93;;;5.20;99.90;;;;;;4402619;32;20467;-66
2022/01/14 01:45:54;;;;;;;569.57;538.33;;;5.20;99.90;;;;;;4408114;32;20170;-65
2022/01/14 01:48:25;;;;;;;548.40;517.40;;;5.20;99.90;;;;;;4407173;32;20200;-68
2022/01/14 01:50:57;;;;;;;554.00;522.87;;;5.20;99.90;;;;;;4402124;32;20560;-67
2022/01/14 01:53:31;;;;;;;536.67;506.77;;;5.20;99.90;;;;;;4391918;32;20168;-63
2022/01/14 01:56:00;;;;;;;566.50;535.00;;;5.20;99.90;;;;;;4391751;32;20156;-66
2022/01/14 01:58:27;;;;;;;535.53;505.37;;;5.10;99.90;;;;;;4405548;32;20148;-65
2022/01/14 02:00:54;;;;;;;542.30;512.37;;;5.20;99.90;;;;;;4405950;32;20168;-65
2022/01/14 02:03:20;;;;;;;555.63;524.70;;;5.10;99.90;;;;;;4406752;32;20519;-65
2022/01/14 02:05:50;;;;;;;539.60;509.67;;;5.10;99.90;;;;;;4396362;32;20184;-65
2022/01/14 02:08:17;;;;;;;550.00;519.50;;;5.10;99.90;;;;;;4403850;32;20210;-66
2022/01/14 02:10:45;;;;;;;544.07;514.80;;;5.10;99.90;;;;;;4395120;32;20162;-66
2022/01/14 02:13:12;;;;;;;550.17;520.17;;;5.00;99.90;;;;;;4399973;32;20148;-65
2022/01/14 02:15:48;;;;;;;535.23;506.40;;;4.90;99.90;;;;;;4400762;32;20144;-68
2022/01/14 02:18:37;;;;;;;540.23;511.13;;;5.00;99.90;;;;;;4406133;32;20638;-64
2022/01/14 02:24:07;;;;;;;524.73;496.93;;;4.90;99.90;;;;;;4396154;32;20621;-65
2022/01/14 02:26:45;;;;;;;525.17;496.80;;;4.90;99.90;;;;;;4406878;32;20156;-63
2022/01/14 02:29:16;;;;;;;517.60;489.13;;;4.90;99.90;;;;;;4398757;32;20491;-64
2022/01/14 02:31:45;;;;;;;523.87;495.23;;;4.90;99.90;;;;;;4401797;32;20140;-66
2022/01/14 02:34:14;;;;;;;515.60;488.03;;;4.90;99.90;;;;;;4402479;32;20174;-65
2022/01/14 02:36:44;;;;;;;529.80;500.77;;;4.90;99.90;;;;;;4402798;32;20205;-64
2022/01/14 02:39:11;;;;;;;529.27;501.30;;;4.90;99.90;;;;;;4397436;32;20156;-64
2022/01/14 02:41:41;;;;;;;528.87;500.43;;;4.90;99.90;;;;;;4397030;32;20560;-65
2022/01/14 02:44:18;;;;;;;554.57;524.53;;;5.00;99.90;;;;;;4404646;32;20456;-64
2022/01/14 02:46:52;;;;;;;543.23;514.07;;;5.00;99.90;;;;;;4394816;32;20155;-64
2022/01/14 02:49:20;;;;;;;547.87;518.07;;;5.00;99.90;;;;;;4405856;32;20215;-63
2022/01/14 02:51:48;;;;;;;554.80;524.77;;;5.00;99.90;;;;;;4405201;32;20552;-67
2022/01/14 02:54:20;;;;;;;567.03;536.00;;;5.00;99.90;;;;;;4393291;32;20148;-67
2022/01/14 02:56:48;;;;;;;537.70;508.67;;;5.00;99.90;;;;;;4401989;32;20212;-69
2022/01/14 02:59:17;;;;;;;563.10;531.80;;;5.10;99.90;;;;;;4397679;32;20564;-66
2022/01/14 03:01:46;;;;;;;558.47;527.20;;;5.00;99.90;;;;;;4395690;32;20182;-65
2022/01/14 03:04:17;;;;;;;562.70;531.33;;;5.00;99.90;;;;;;4403272;32;20215;-64
2022/01/14 03:06:45;;;;;;;537.07;507.80;;;5.00;99.90;;;;;;4393967;32;20648;-63
2022/01/14 03:09:14;;;;;;;550.70;519.73;;;4.90;99.90;;;;;;4398651;32;20152;-67
2022/01/14 03:11:47;;;;;;;554.20;524.20;;;4.90;99.90;;;;;;4401849;32;20227;-63
2022/01/14 03:14:21;;;;;;;549.43;518.50;;;4.70;99.90;;;;;;4394641;32;20434;-65
2022/01/14 03:16:49;;;;;;;532.50;503.33;;;4.70;99.90;;;;;;4393144;32;20175;-64
2022/01/14 03:19:20;;;;;;;560.70;529.50;;;4.80;99.90;;;;;;4406217;32;20456;-64
2022/01/14 03:21:50;;;;;;;525.33;496.50;;;4.70;99.90;;;;;;4395228;32;20168;-62
2022/01/14 03:24:21;;;;;;;548.83;518.17;;;4.80;99.90;;;;;;4403446;32;20151;-62
2022/01/14 03:26:50;;;;;;;550.17;519.07;;;4.70;99.90;;;;;;4399748;32;20636;-65
2022/01/14 03:29:22;;;;;;;564.70;533.30;;;4.80;99.90;;;;;;4393057;32;20148;-64
2022/01/14 03:31:49;;;;;;;548.80;517.97;;;4.80;99.90;;;;;;4398118;32;20425;-64
2022/01/14 03:34:19;;;;;;;542.93;513.07;;;4.80;99.90;;;;;;4403048;32;20479;-64
2022/01/14 03:36:46;;;;;;;532.50;502.67;;;4.70;99.90;;;;;;4394113;32;20157;-62
2022/01/14 03:39:13;;;;;;;536.93;507.03;;;4.60;99.90;;;;;;4398802;32;20216;-65
2022/01/14 03:41:43;;;;;;;545.63;514.70;;;4.60;99.90;;;;;;4399621;32;20170;-62
2022/01/14 03:44:11;;;;;;;542.57;511.77;;;4.70;99.90;;;;;;4404884;32;20144;-64
2022/01/14 03:46:41;;;;;;;571.50;539.37;;;4.60;99.90;;;;;;4393215;32;20147;-65
2022/01/14 03:49:08;;;;;;;542.50;511.70;;;4.70;99.90;;;;;;4399166;32;20190;-63
2022/01/14 03:51:35;;;;;;;569.77;537.40;;;4.70;99.90;;;;;;4399207;32;20190;-63
2022/01/14 03:54:02;;;;;;;533.57;503.40;;;4.70;99.90;;;;;;4394249;32;20518;-64
2022/01/14 03:56:29;;;;;;;549.67;518.37;;;4.70;99.90;;;;;;4405242;32;20556;-67
2022/01/14 03:58:57;;;;;;;544.73;513.77;;;4.60;99.90;;;;;;4399962;32;20151;-65
2022/01/14 04:01:24;;;;;;;555.43;525.40;;;4.60;99.90;;;;;;4397792;32;20183;-63
2022/01/14 04:03:54;;;;;;;560.87;530.00;;;4.60;99.90;;;;;;4407813;32;20172;-62
2022/01/14 04:06:21;;;;;;;555.97;524.50;;;4.60;99.90;;;;;;4395700;32;20237;-65
2022/01/14 04:08:48;;;;;;;536.30;507.13;;;4.60;99.90;;;;;;4404864;32;20179;-66
2022/01/14 04:11:15;;;;;;;564.00;531.70;;;4.60;99.90;;;;;;4399985;32;20190;-63
2022/01/14 04:13:47;;;;;;;553.33;523.30;;;4.60;99.90;;;;;;4398517;32;20174;-68
2022/01/14 04:16:17;;;;;;;568.53;537.13;;;4.70;99.90;;;;;;4405729;32;20165;-66
2022/01/14 04:18:44;;;;;;;547.43;518.07;;;4.70;99.90;;;;;;4404738;32;20152;-66
2022/01/14 04:21:11;;;;;;;556.73;526.07;;;4.60;99.90;;;;;;4399682;32;20465;-66
2022/01/14 04:23:38;;;;;;;551.57;521.20;;;4.60;99.90;;;;;;4400077;32;20145;-66
2022/01/14 04:26:05;;;;;;;550.17;520.43;;;4.60;99.90;;;;;;4407409;32;20527;-66
2022/01/14 04:28:34;;;;;;;560.30;529.97;;;4.60;99.90;;;;;;4392945;32;20178;-67
2022/01/14 04:31:02;;;;;;;555.90;525.50;;;4.70;99.90;;;;;;4393924;32;20152;-65
2022/01/14 04:33:31;;;;;;;559.17;529.57;;;4.70;99.90;;;;;;4404936;32;20226;-66
2022/01/14 04:35:59;;;;;;;589.23;557.50;;;4.80;99.90;;;;;;4400699;32;20192;-66
2022/01/14 04:38:27;;;;;;;546.47;517.20;;;4.70;99.90;;;;;;4405959;32;20172;-66
2022/01/14 04:40:55;;;;;;;554.10;524.17;;;4.90;99.90;;;;;;4392690;32;20152;-66
2022/01/14 04:43:22;;;;;;;564.13;533.47;;;4.80;99.90;;;;;;4399546;32;20193;-65
2022/01/14 04:46:24;;;;;;;566.50;535.23;;;4.90;99.90;;;;;;4407804;32;20140;-66
2022/01/14 04:48:51;;;;;;;515.97;488.23;;;4.80;99.90;;;;;;4393201;32;20462;-67
2022/01/14 04:51:21;;;;;;;540.10;511.40;;;4.80;99.90;;;;;;4408236;32;20151;-64
2022/01/14 04:53:56;;;;;;;551.17;520.87;;;4.80;99.90;;;;;;4396922;32;20164;-64
2022/01/14 04:56:26;;;;;;;578.07;547.13;;;4.80;99.90;;;;;;4394266;32;20148;-65
2022/01/14 04:58:57;;;;;;;561.77;531.67;;;4.80;99.90;;;;;;4407319;32;20166;-66
2022/01/14 05:01:25;;;;;;;550.13;520.10;;;4.80;99.90;;;;;;4399444;32;20212;-66
2022/01/14 05:03:55;;;;;;;578.20;546.77;;;4.80;99.90;;;;;;4402418;32;20493;-65
2022/01/14 05:06:23;;;;;;;560.70;530.73;;;4.80;99.90;;;;;;4405453;32;20170;-63
2022/01/14 05:08:53;;;;;;;544.47;516.07;;;4.80;99.90;;;;;;4403937;32;20172;-64
2022/01/14 05:11:36;;;;;;;531.27;502.70;;;4.80;99.90;;;;;;4399030;32;20148;-64
2022/01/14 05:14:03;;;;;;;550.80;520.50;;;4.80;99.90;;;;;;4403215;32;20477;-65
2022/01/14 05:16:30;;;;;;;540.83;512.13;;;4.70;99.90;;;;;;4394346;32;20602;-63
2022/01/14 05:18:59;;;;;;;542.17;513.77;;;4.70;99.90;;;;;;4401530;32;20175;-64
2022/01/14 05:21:25;;;;;;;565.90;535.70;;;4.70;99.90;;;;;;4399442;32;20164;-65
2022/01/14 05:23:52;;;;;;;572.70;541.30;;;4.80;99.90;;;;;;4402048;32;20201;-61
2022/01/14 05:26:19;;;;;;;544.13;515.03;;;4.80;99.90;;;;;;4405282;32;20159;-63
2022/01/14 05:28:46;;;;;;;567.50;537.47;;;4.80;99.90;;;;;;4395383;32;20217;-66
2022/01/14 05:31:18;;;;;;;544.93;514.93;;;4.80;99.90;;;;;;4399267;32;20153;-68
2022/01/14 05:33:46;;;;;;;541.53;512.50;;;4.70;99.90;;;;;;4400977;32;20147;-66
2022/01/14 05:36:15;;;;;;;551.60;522.27;;;4.80;99.90;;;;;;4395097;32;20194;-64
2022/01/14 05:38:42;;;;;;;556.17;526.47;;;4.80;99.90;;;;;;4394733;32;20170;-66
2022/01/14 05:41:11;;;;;;;558.10;528.07;;;4.80;99.90;;;;;;4405649;32;20201;-65
2022/01/14 05:43:38;;;;;;;572.13;541.43;;;4.80;99.90;;;;;;4396425;32;20588;-66
2022/01/14 05:46:05;;;;;;;539.87;511.67;;;4.90;99.90;;;;;;4396374;32;20152;-66
2022/01/14 05:48:32;;;;;;;554.90;525.57;;;4.90;99.90;;;;;;4403730;32;20253;-67
2022/01/14 05:50:59;;;;;;;554.33;524.50;;;4.90;99.90;;;;;;4396118;32;20156;-65
2022/01/14 05:53:31;;;;;;;555.57;525.50;;;4.90;99.90;;;;;;4400283;32;20222;-65
2022/01/14 05:55:58;;;;;;;553.07;523.20;;;4.90;99.90;;;;;;4404677;32;20515;-66
2022/01/14 05:58:30;;;;;;;539.87;511.17;;;4.90;99.90;;;;;;4398005;32;20211;-65
2022/01/14 06:00:59;;;;;;;512.33;486.70;;;5.00;99.90;;;;;;4320859;32;2470776;-64
2022/01/14 06:03:29;;;;;;;539.63;510.87;;;5.00;99.90;;;;;;4407088;32;20156;-64
2022/01/14 06:05:57;;;;;;;550.03;520.30;;;5.00;99.90;;;;;;4396117;32;20171;-65
2022/01/14 06:08:26;;;;;;;534.47;506.57;;;5.00;99.90;;;;;;4403839;32;20156;-64
2022/01/14 06:10:55;;;;;;;540.80;512.33;;;5.00;99.90;;;;;;4396457;32;20186;-65
2022/01/14 06:13:22;;;;;;;553.83;524.23;;;4.90;99.90;;;;;;4398417;32;20203;-64
2022/01/14 06:15:48;;;;;;;567.67;537.87;;;5.00;99.90;;;;;;4399753;32;20167;-62
2022/01/14 06:18:15;;;;;;;560.43;531.30;;;4.90;99.90;;;;;;4405335;32;20170;-61
2022/01/14 06:20:43;;;;;;;537.53;509.13;;;4.90;99.90;;;;;;4401420;32;20156;-64
2022/01/14 06:23:13;;;;;;;561.17;531.57;;;4.90;99.90;;;;;;4396591;32;20643;-62
2022/01/14 06:25:40;;;;;;;554.53;526.03;;;4.90;99.90;;;;;;4402520;32;20190;-64
2022/01/14 06:28:08;;;;;;;548.00;518.77;;;5.00;99.90;;;;;;4402562;32;20196;-62
2022/01/14 06:30:35;;;;;;;552.73;523.37;;;5.00;99.90;;;;;;4399164;32;20156;-64
2022/01/14 06:33:02;;;;;;;551.27;522.50;;;5.00;99.90;;;;;;4397899;32;20168;-64
2022/01/14 06:35:29;;;;;;;537.00;508.57;;;5.00;99.90;;;;;;4402793;32;20580;-64
2022/01/14 06:37:59;;;;;;;565.57;534.77;;;5.00;99.90;;;;;;4396960;32;20187;-62
2022/01/14 06:40:25;;;;;;;495.07;469.10;;;5.00;99.90;;;;;;4405025;32;20145;-65
2022/01/14 06:42:52;;;;;;;537.80;509.73;;;4.90;99.90;;;;;;4402305;32;20183;-63
2022/01/14 06:45:21;;;;;;;527.40;500.10;;;4.90;99.90;;;;;;4404270;32;20147;-63
2022/01/14 06:47:48;;;;;;;523.43;496.13;;;4.90;99.90;;;;;;4397513;32;20588;-62
2022/01/14 06:50:15;;;;;;;531.17;503.07;;;4.90;99.90;;;;;;4398065;32;20156;-62
2022/01/14 06:52:43;;;;;;;529.93;502.30;;;4.80;99.90;;;;;;4402445;32;20183;-62
2022/01/14 06:55:12;;;;;;;507.50;481.33;;;4.80;99.90;;;;;;4400790;32;20178;-63
2022/01/14 06:57:41;;;;;;;515.23;488.80;;;4.80;99.90;;;;;;4398210;32;20148;-62
2022/01/14 07:00:19;;;;;;;503.47;477.67;;;4.80;99.90;;;;;;4397591;32;20160;-66
2022/01/14 07:02:47;;;;;;;511.07;485.47;;;4.80;99.90;;;;;;4399230;32;20560;-62
2022/01/14 07:05:14;;;;;;;519.07;492.50;;;4.90;99.90;;;;;;4396952;32;20211;-63
2022/01/14 07:07:42;;;;;;;511.83;485.73;;;4.80;99.90;;;;;;4398678;32;20195;-62
2022/01/14 07:10:11;;;;;;;524.13;496.83;;;4.70;99.90;;;;;;4397399;32;20167;-63
2022/01/14 07:12:41;;;;;;;512.23;486.10;;;4.70;99.90;;;;;;4396966;32;20163;-62
2022/01/14 07:15:15;;;;;;;508.93;483.30;;;4.60;99.90;;;;;;4397332;32;20502;-66
2022/01/14 07:17:45;;;;;;;504.23;478.93;;;4.60;99.90;;;;;;4397079;32;20199;-62
2022/01/14 07:20:17;;;;;;;517.00;490.97;;;4.70;99.90;;;;;;4398199;32;20227;-65
2022/01/14 07:22:56;;;;;;;530.20;502.73;;;4.70;99.90;;;;;;4402806;32;20207;-63
2022/01/14 07:25:24;;;;;;;530.93;504.03;;;4.70;99.90;;;;;;4398256;32;20221;-63
2022/01/14 07:27:57;;;;;;;527.70;501.00;;;4.80;99.90;;;;;;4401242;32;20457;-64
2022/01/14 07:30:35;;;;;;;;;;;;;;;;;;;;;
2022/01/14 07:33:05;;;;;;;518.97;493.13;;;4.80;99.90;;;;;;4406028;32;20143;-66
2022/01/14 07:35:33;;;;;;;516.27;489.73;;;4.80;99.90;;;;;;4406040;32;20194;-63
2022/01/14 07:38:00;;;;;;;551.23;522.83;;;4.60;99.90;;;;;;4405603;32;20564;-63
2022/01/14 07:40:29;;;;;;;515.70;489.67;;;4.70;99.90;;;;;;4405420;32;20182;-65
2022/01/14 07:42:59;;;;;;;509.40;483.50;;;4.70;99.90;;;;;;4401951;32;20243;-62
2022/01/14 07:45:33;;;;;;;501.43;476.07;;;4.70;99.90;;;;;;4398239;32;20160;-62
2022/01/14 07:48:00;;;;;;;505.37;480.03;;;4.70;99.90;;;;;;4397691;32;20611;-61
2022/01/14 07:50:27;;;;;;;543.17;515.47;;;4.70;99.90;;;;;;4404309;32;20548;-61
2022/01/14 07:53:06;;;;;;;532.87;505.83;;;4.80;99.90;;;;;;4401692;32;20218;-61
2022/01/14 07:55:40;;;;;;;520.80;494.40;;;4.80;99.90;;;;;;4400874;32;20563;-62
2022/01/14 07:58:08;;;;;;;515.07;489.47;;;4.80;99.90;;;;;;4404632;32;20151;-62
2022/01/14 08:00:36;;;;;;;512.07;486.30;;;4.80;99.90;;;;;;4405216;32;20486;-62
2022/01/14 08:03:05;;;;;;;495.17;470.13;;;4.80;99.90;;;;;;4405782;32;20571;-66
2022/01/14 08:05:32;;;;;;;520.43;494.67;;;4.90;99.90;;;;;;4406053;32;20190;-66
2022/01/14 08:08:04;;;;;;;507.83;482.03;;;4.80;99.90;;;;;;4404889;32;20163;-62
2022/01/14 08:10:36;;;;;;;511.27;485.87;;;4.90;99.90;;;;;;4401957;32;20602;-64
2022/01/14 08:13:05;;;;;;;512.77;486.87;;;4.90;99.90;;;;;;4400071;32;20281;-62
2022/01/14 08:15:32;;;;;;;490.77;466.10;;;4.90;99.90;;;;;;4404247;32;20609;-60
2022/01/14 08:18:01;;;;;;;515.80;490.17;;;4.90;99.90;;;;;;4401209;32;20174;-63
2022/01/14 08:20:39;;;;;;;514.00;487.60;;;4.90;99.90;;;;;;4405231;32;20175;-65
2022/01/14 08:23:11;;;;;;;532.27;505.40;;;4.90;99.90;;;;;;4406047;32;20151;-62
2022/01/14 08:25:55;;;;;;;507.80;482.73;;;5.00;99.90;;;;;;4406276;32;20140;-62
2022/01/14 08:28:22;;;;;;;487.70;463.30;;;4.90;99.90;;;;;;4404522;32;20630;-63
2022/01/14 08:30:55;;;;;;;504.07;477.90;;;5.00;99.90;;;;;;4404930;32;20148;-63
2022/01/14 08:33:22;;;;;;;504.73;478.83;;;5.00;99.90;;;;;;4405773;32;20175;-66
2022/01/14 08:35:49;;;;;;;509.70;483.80;;;5.00;99.90;;;;;;4406108;32;20159;-62
2022/01/14 08:38:17;;;;;;;512.47;486.30;;;4.90;99.90;;;;;;4406802;32;20227;-66
2022/01/14 08:40:54;;;;;;;527.57;500.13;;;5.00;99.90;;;;;;4405085;32;20482;-65
2022/01/14 08:43:22;;;;;;;541.27;513.57;;;5.00;99.90;;;;;;4404964;32;20151;-65
2022/01/14 08:45:50;;;;;;;532.00;503.97;;;5.10;99.90;;;;;;4406445;32;20190;-63
2022/01/14 08:48:18;;;;;;;534.47;506.37;;;5.20;99.90;;;;;;4405804;32;20140;-63
2022/01/14 08:50:45;;;;;;;541.70;513.70;;;5.20;99.90;;;;;;4407756;32;20178;-62
2022/01/14 08:53:14;;;;;;;536.90;509.83;;;5.30;99.90;;;;;;4408474;32;20559;-62
2022/01/14 08:55:45;;;;;;;511.10;485.13;;;5.40;99.90;;;;;;4408524;32;20160;-63
2022/01/14 08:58:15;;;;;;;525.87;498.83;;;5.40;99.90;;;;;;4409126;32;20145;-63
2022/01/14 09:00:42;;;;;;;536.40;508.67;;;5.40;99.90;;;;;;4409242;32;20478;-62
2022/01/14 09:03:11;;;;;;;546.63;518.17;;;5.50;99.90;;;;;;4407473;32;20155;-63
2022/01/14 09:05:38;;;;;;;563.10;534.43;;;5.50;99.90;;;;;;4407647;32;20140;-62
2022/01/14 09:08:09;;;;;;;530.73;503.23;;;5.50;99.90;;;;;;4408458;32;20144;-62
2022/01/14 09:10:42;;;;;;;537.93;510.13;;;5.50;99.90;;;;;;4407582;32;20582;-62
2022/01/14 09:13:17;;;;;;;541.37;513.93;;;5.50;99.90;;;;;;4407337;32;20154;-62
2022/01/14 09:15:47;;;;;;;549.27;520.90;;;5.60;99.90;;;;;;4407713;32;20166;-62
2022/01/14 09:18:14;;;;;;;508.00;481.70;;;5.60;99.90;;;;;;4407797;32;20152;-62
2022/01/14 09:20:41;;;;;;;535.53;507.77;;;5.60;99.90;;;;;;4408269;32;20222;-62
2022/01/14 09:23:14;;;;;;;515.57;488.83;;;5.60;99.90;;;;;;4407822;32;20148;-62
2022/01/14 09:25:43;;;;;;;515.20;489.63;;;5.70;99.90;;;;;;4407413;32;20158;-61
2022/01/14 09:28:13;;;;;;;528.20;501.43;;;5.70;99.90;;;;;;4408060;32;20140;-61
2022/01/14 09:30:40;;;;;;;527.67;500.67;;;5.70;99.90;;;;;;4407405;32;20201;-62
2022/01/14 09:33:09;;;;;;;541.17;513.33;;;5.70;99.90;;;;;;4407422;32;20140;-62
2022/01/14 09:35:40;;;;;;;539.70;512.37;;;5.80;99.90;;;;;;4407112;32;20140;-61
2022/01/14 09:38:10;;;;;;;517.07;490.80;;;5.80;99.90;;;;;;4408457;32;20145;-62
2022/01/14 09:40:42;;;;;;;546.07;518.07;;;5.80;99.90;;;;;;4407014;32;20462;-62
2022/01/14 09:43:12;;;;;;;520.53;493.53;;;5.80;99.90;;;;;;4407686;32;20203;-61
2022/01/14 09:45:45;;;;;;;554.80;526.37;;;5.80;99.90;;;;;;4407553;32;20461;-62
2022/01/14 09:48:16;;;;;;;541.93;514.47;;;5.80;99.90;;;;;;4406820;32;20199;-62
2022/01/14 09:50:55;;;;;;;529.50;501.83;;;5.90;99.90;;;;;;4407033;32;20143;-62
2022/01/14 09:53:22;;;;;;;546.93;518.93;;;5.90;99.90;;;;;;4406240;32;20144;-62
2022/01/14 09:55:53;;;;;;;551.77;523.03;;;6.00;99.90;;;;;;4406974;32;20581;-62
2022/01/14 09:58:21;;;;;;;568.10;538.77;;;6.10;99.90;;;;;;4406861;32;20144;-62
2022/01/14 10:00:49;;;;;;;565.37;536.17;;;6.10;99.90;;;;;;4405984;32;20144;-61
2022/01/14 10:03:21;;;;;;;551.27;521.90;;;6.10;99.90;;;;;;4406901;32;20475;-62
2022/01/14 10:05:55;;;;;;;536.90;509.23;;;6.20;99.90;;;;;;4406847;32;20183;-62
2022/01/14 10:08:25;;;;;;;534.60;506.53;;;6.20;99.90;;;;;;4406747;32;20170;-61
2022/01/14 10:10:57;;;;;;;521.27;494.77;;;6.30;99.90;;;;;;4406887;32;20140;-62
2022/01/14 10:13:29;;;;;;;536.47;508.50;;;6.30;99.90;;;;;;4407055;32;20136;-62
2022/01/14 10:16:04;;;;;;;516.93;490.30;;;6.30;99.90;;;;;;4406649;32;20195;-62
2022/01/14 10:18:38;;;;;;;537.40;509.37;;;6.40;99.90;;;;;;4407194;32;20155;-62
2022/01/14 10:21:06;;;;;;;563.90;534.83;;;6.40;99.90;;;;;;4401304;32;20237;-62
2022/01/14 10:23:44;;;;;;;528.63;501.37;;;6.50;99.90;;;;;;4390261;32;20163;-62
2022/01/14 10:26:12;;;;;;;544.03;516.03;;;6.60;99.90;;;;;;4391126;32;20144;-62
2022/01/14 10:28:43;;;;;;;547.67;519.80;;;6.60;99.90;;;;;;4391280;32;20144;-62
2022/01/14 10:31:35;;;;;;;531.83;504.37;;;6.70;99.90;;;;;;4391482;32;20145;-62
2022/01/14 10:34:13;;;;;;;533.73;506.77;;;6.70;99.90;;;;;;4391696;32;20161;-62
2022/01/14 10:36:43;;;;;;;555.67;527.13;;;6.70;99.90;;;;;;4390971;32;20132;-62
2022/01/14 10:39:25;;;;;;;523.47;496.27;;;6.80;99.90;;;;;;4391323;32;20152;-61
2022/01/14 10:41:59;;;;;;;546.87;518.60;;;6.80;99.90;;;;;;4391228;32;20201;-62
2022/01/14 10:44:28;;;;;;;546.53;518.43;;;6.70;99.90;;;;;;4392046;32;20163;-62
2022/01/14 10:47:15;;;;;;;545.37;517.47;;;6.70;99.90;;;;;;4391065;32;20548;-62
2022/01/14 10:49:43;;;;;;;552.73;524.70;;;6.60;99.90;;;;;;4392078;32;20195;-62
2022/01/14 10:52:13;;;;;;;546.47;518.20;;;6.60;99.90;;;;;;4390983;32;20171;-62
2022/01/14 10:54:44;;;;;;;538.23;510.03;;;6.60;99.90;;;;;;4392691;32;20212;-62
2022/01/14 10:57:16;;;;;;;542.03;514.23;;;6.70;99.90;;;;;;4390753;32;20207;-62
2022/01/14 10:59:47;;;;;;;541.77;513.43;;;6.70;99.90;;;;;;4392564;32;20172;-62
2022/01/14 11:02:42;;;;;;;555.63;526.97;;;6.70;99.90;;;;;;4390463;32;20224;-62
2022/01/14 11:05:12;;;;;;;532.30;505.47;;;6.80;99.90;;;;;;4394815;32;20239;-62
2022/01/14 11:07:40;;;;;;;546.77;518.10;;;6.90;99.90;;;;;;4405890;32;20167;-62
2022/01/14 11:10:24;;;;;;;561.13;531.50;;;6.80;99.90;;;;;;4405707;32;20136;-62
2022/01/14 11:12:53;;;;;;;540.10;511.90;;;6.90;99.90;;;;;;4405652;32;20193;-62
2022/01/14 11:15:21;;;;;;;558.27;528.27;;;6.90;99.90;;;;;;4406012;32;20139;-62
2022/01/14 11:17:55;;;;;;;562.97;533.17;;;6.90;99.90;;;;;;4406330;32;20143;-62
2022/01/14 11:20:30;;;;;;;560.90;532.00;;;7.00;99.90;;;;;;4405758;32;20172;-63
2022/01/14 11:23:17;;;;;;;568.13;537.97;;;7.10;99.90;;;;;;4405723;32;20230;-66
2022/01/14 11:25:51;;;;;;;570.53;541.53;;;7.10;99.90;;;;;;4406342;32;20139;-63
2022/01/14 11:28:24;;;;;;;558.50;529.60;;;7.10;99.90;;;;;;4406215;32;20143;-65
2022/01/14 11:30:51;;;;;;;551.20;522.40;;;7.20;99.90;;;;;;4406204;32;20514;-62
2022/01/14 11:33:20;;;;;;;572.70;542.60;;;7.20;99.90;;;;;;4403332;32;20589;-63
2022/01/14 11:35:56;;;;;;;574.07;544.20;;;7.30;99.90;;;;;;4404081;32;20214;-64
2022/01/14 11:38:44;;;;;;;581.63;550.97;;;7.30;99.90;;;;;;4404822;32;20164;-65
2022/01/14 11:41:17;;;;;;;550.80;521.87;;;7.30;99.90;;;;;;4405662;32;20182;-62
2022/01/14 11:43:57;;;;;;;580.23;549.93;;;7.30;99.90;;;;;;4405509;32;20505;-66
2022/01/14 11:46:48;;;;;;;548.30;520.23;;;7.30;99.90;;;;;;4404538;32;20167;-63
2022/01/14 11:49:42;;;;;;;557.33;527.83;;;7.20;99.90;;;;;;4405573;32;20613;-65
2022/01/14 11:52:09;;;;;;;549.37;520.27;;;7.20;99.90;;;;;;4398253;32;20214;-65
2022/01/14 11:54:44;;;;;;;575.40;545.33;;;7.20;99.90;;;;;;4405526;32;20148;-63
2022/01/14 11:57:13;;;;;;;582.40;551.00;;;7.20;99.90;;;;;;4405231;32;20212;-64
2022/01/14 11:59:45;;;;;;;573.47;543.10;;;7.30;99.90;;;;;;4405425;32;20143;-62
2022/01/14 12:02:33;;;;;;;580.27;549.50;;;7.40;99.90;;;;;;4405177;32;20161;-66
2022/01/14 12:05:07;;;;;;;557.43;528.63;;;7.40;99.90;;;;;;4406158;32;20144;-63
2022/01/14 12:08:23;;;;;;;564.87;535.30;;;7.40;99.90;;;;;;4406052;32;20148;-63
2022/01/14 12:11:09;;;;;;;561.37;531.70;;;7.40;99.90;;;;;;4405255;32;20178;-63
2022/01/14 12:13:43;;;;;;;568.47;537.70;;;7.40;99.90;;;;;;4395573;32;20501;-65
2022/01/14 12:16:37;;;;;;;587.80;556.10;;;7.40;99.90;;;;;;4405836;32;20156;-67
2022/01/14 12:19:18;;;;;;;575.47;545.17;;;7.40;99.90;;;;;;4406126;32;20574;-63
2022/01/14 12:22:06;;;;;;;563.30;533.27;;;7.40;99.90;;;;;;4405373;32;20145;-63
2022/01/14 12:24:51;;;;;;;567.93;537.60;;;7.40;99.90;;;;;;4407445;32;20586;-64
2022/01/14 12:27:28;;;;;;;565.37;535.77;;;7.40;99.90;;;;;;4408362;32;20140;-66
2022/01/14 12:30:20;;;;;;;571.93;541.97;;;7.50;99.90;;;;;;4408306;32;20233;-61
2022/01/14 12:32:50;;;;;;;572.63;542.30;;;7.50;99.90;;;;;;4408146;32;20160;-66
2022/01/14 12:35:18;;;;;;;591.67;559.67;;;7.50;99.90;;;;;;4408028;32;20154;-63
2022/01/14 12:37:51;;;;;;;604.03;571.53;;;7.40;99.90;;;;;;4408110;32;20145;-62
2022/01/14 12:40:21;;;;;;;582.07;550.93;;;7.50;99.90;;;;;;4409517;32;20196;-63
2022/01/14 12:42:51;;;;;;;591.60;559.77;;;7.50;99.90;;;;;;4408194;32;20145;-64
2022/01/14 12:45:31;;;;;;;581.33;550.77;;;7.50;99.90;;;;;;4409077;32;20144;-62
2022/01/14 12:48:13;;;;;;;574.93;544.17;;;7.50;99.90;;;;;;4409796;32;20139;-64
2022/01/14 12:50:44;;;;;;;574.23;543.70;;;7.50;99.90;;;;;;4407920;32;20513;-62
2022/01/14 12:53:17;;;;;;;581.80;550.43;;;7.50;99.90;;;;;;4407913;32;20136;-63